LJLJ/LJU METAR and TAF weather

Enter ICAO airport designator
Station Type Date Time Source
LJLJ METAR 2020/07/12 00:30 UTC NOAA

LJLJ 120030Z VRB01KT 9999 FEW003 BKN027 BKN100 14/14 Q1022 NOSIG


Station Type Date Time Source
LJLJ Decoded METAR 2020/07/12 00:30 UTC NOAA

Ljubljana / Brnik, Slovenia (LJLJ) 46-13N 014-29E 362M
Jul 11, 2020 - 08:30 PM EDT / 2020.07.12 0030 UTC
Wind: Variable at 1 MPH (1 KT):0
Visibility: greater than 7 mile(s):0
Sky conditions: mostly cloudy
Temperature: 57 F (14 C)
Dew Point: 57 F (14 C)
Relative Humidity: 100%
Pressure (altimeter): 30.18 in. Hg (1022 hPa)
ob: LJLJ 120030Z VRB01KT 9999 FEW003 BKN027 BKN100 14/14 Q1022 NOSIG
cycle: 0

Station Type Date Time Source
LJLJ TAF 2020/07/11 18:05 UTC NOAA

TAF LJLJ 111700Z 1118/1218 10005KT 9999 SCT050
TEMPO 1118/1120 30010KT SHRA BKN040TCU PROB40
TEMPO 1121/1209 BKN013

Example: see airport list